createdAt,value
2023-03-26T00:01:33.959Z,13.52
2023-03-26T00:04:01.308Z,13.73
2023-03-26T00:06:36.808Z,13.88
2023-03-26T00:09:05.450Z,13.95
2023-03-26T00:11:32.229Z,13.97
2023-03-26T00:13:59.287Z,13.88
2023-03-26T00:16:31.320Z,13.62
2023-03-26T00:18:58.796Z,13.49
2023-03-26T00:21:28.007Z,13.36
2023-03-26T00:24:04.553Z,13.40
2023-03-26T00:26:34.076Z,13.56
2023-03-26T00:29:03.418Z,13.36
2023-03-26T00:31:30.846Z,13.37
2023-03-26T00:33:57.971Z,13.26
2023-03-26T00:36:26.942Z,13.15
2023-03-26T00:38:54.403Z,13.14
2023-03-26T00:41:25.088Z,13.09
2023-03-26T00:43:56.224Z,13.19
2023-03-26T00:46:24.268Z,13.22
2023-03-26T00:48:51.108Z,13.12
2023-03-26T00:51:20.754Z,12.96
2023-03-26T00:53:49.317Z,12.90
2023-03-26T00:56:16.151Z,12.83
2023-03-26T00:58:43.414Z,12.85
2023-03-26T01:01:16.586Z,12.81
2023-03-26T01:03:57.070Z,12.73
2023-03-26T01:06:36.043Z,12.77
2023-03-26T01:09:13.562Z,12.76
2023-03-26T01:11:40.316Z,12.68
2023-03-26T01:14:33.319Z,12.66
2023-03-26T01:17:02.514Z,12.53
2023-03-26T01:19:34.128Z,12.55
2023-03-26T01:22:00.818Z,12.54
2023-03-26T01:24:27.584Z,12.57
2023-03-26T01:27:17.924Z,12.60
2023-03-26T01:30:15.298Z,12.65
2023-03-26T01:32:55.608Z,12.70
2023-03-26T01:35:41.216Z,12.77
2023-03-26T01:38:27.881Z,12.84
2023-03-26T01:41:21.086Z,12.90
2023-03-26T01:43:58.966Z,12.93
2023-03-26T01:46:27.393Z,12.99
2023-03-26T01:48:55.523Z,13.05
2023-03-26T01:51:34.453Z,13.14
2023-03-26T01:54:08.803Z,13.12
2023-03-26T01:57:01.880Z,13.05
2023-03-26T02:00:13.064Z,13.08
2023-03-26T02:03:10.106Z,13.08
2023-03-26T02:05:49.981Z,13.02
2023-03-26T02:08:23.645Z,12.99
2023-03-26T02:10:57.853Z,13.01
2023-03-26T02:13:25.911Z,13.00
2023-03-26T02:15:58.177Z,13.00
2023-03-26T02:18:25.314Z,13.07
2023-03-26T02:20:55.888Z,12.98
2023-03-26T02:23:22.626Z,12.97
2023-03-26T02:25:49.344Z,12.97
2023-03-26T02:28:17.150Z,13.06
2023-03-26T02:30:45.935Z,13.11
2023-03-26T02:33:15.424Z,13.22
2023-03-26T02:35:46.072Z,13.27
2023-03-26T02:38:14.585Z,13.26
2023-03-26T02:40:41.777Z,13.23
2023-03-26T02:43:08.865Z,13.32
2023-03-26T02:45:35.716Z,13.25
2023-03-26T02:48:03.012Z,13.37
2023-03-26T02:50:32.597Z,13.34
2023-03-26T02:52:59.242Z,13.41
2023-03-26T02:55:26.207Z,13.44
2023-03-26T02:57:52.950Z,13.40
2023-03-26T03:00:22.167Z,13.44
2023-03-26T03:02:49.723Z,13.42
2023-03-26T03:05:18.161Z,13.42
2023-03-26T03:07:46.726Z,13.39
2023-03-26T03:10:15.644Z,13.58
2023-03-26T03:12:42.624Z,13.83
2023-03-26T03:15:09.785Z,13.98
2023-03-26T03:17:36.474Z,14.05
2023-03-26T03:20:05.144Z,14.00
2023-03-26T03:22:31.772Z,13.80
2023-03-26T03:24:59.987Z,13.59
2023-03-26T03:27:26.739Z,13.41
2023-03-26T03:29:55.874Z,13.14
2023-03-26T03:32:23.437Z,12.88
2023-03-26T03:34:51.170Z,12.70
2023-03-26T03:37:18.965Z,12.58
2023-03-26T03:39:46.260Z,12.64
2023-03-26T03:42:12.959Z,12.54
2023-03-26T03:44:39.554Z,12.60
2023-03-26T03:47:07.050Z,12.65
2023-03-26T03:49:33.821Z,12.62
2023-03-26T03:52:01.427Z,12.50
2023-03-26T03:54:28.386Z,12.32
2023-03-26T03:56:55.157Z,12.05
2023-03-26T03:59:21.831Z,11.98
2023-03-26T04:01:48.623Z,11.88
2023-03-26T04:04:15.500Z,12.00
2023-03-26T04:06:42.247Z,11.85
2023-03-26T04:09:10.417Z,11.95
2023-03-26T04:11:37.259Z,11.92
2023-03-26T04:14:04.026Z,11.83
2023-03-26T04:16:31.039Z,11.76
2023-03-26T04:18:58.444Z,11.78
2023-03-26T04:21:26.405Z,11.76
2023-03-26T04:23:54.340Z,11.74
2023-03-26T04:26:21.090Z,11.78
2023-03-26T04:28:54.999Z,11.79
2023-03-26T04:31:29.524Z,11.92
2023-03-26T04:34:05.641Z,11.86
2023-03-26T04:36:34.681Z,11.85
2023-03-26T04:39:05.096Z,11.82
2023-03-26T04:41:32.585Z,11.88
2023-03-26T04:44:02.062Z,11.89
2023-03-26T04:46:33.546Z,11.91
2023-03-26T04:49:01.234Z,12.18
2023-03-26T04:51:38.455Z,12.27
2023-03-26T04:54:07.303Z,12.25
2023-03-26T04:56:39.831Z,12.16
2023-03-26T04:59:08.835Z,12.31
2023-03-26T05:01:37.936Z,12.31
2023-03-26T05:04:04.890Z,12.47
2023-03-26T05:06:34.485Z,12.61
2023-03-26T05:09:02.298Z,12.78
2023-03-26T05:11:28.976Z,12.73
2023-03-26T05:13:57.069Z,12.84
2023-03-26T05:16:24.881Z,12.69
2023-03-26T05:18:51.815Z,12.85
2023-03-26T05:21:18.522Z,12.82
2023-03-26T05:23:45.489Z,13.05
2023-03-26T05:26:12.606Z,13.10
2023-03-26T05:28:39.529Z,13.15
2023-03-26T05:31:07.049Z,13.17
2023-03-26T05:33:34.170Z,13.21
2023-03-26T05:36:03.290Z,13.21
2023-03-26T05:38:30.750Z,13.41
2023-03-26T05:41:02.090Z,13.41
2023-03-26T05:43:29.837Z,13.58
2023-03-26T05:45:56.779Z,13.69
2023-03-26T05:48:24.013Z,14.12
2023-03-26T05:50:54.755Z,14.54
2023-03-26T05:53:23.677Z,14.66
2023-03-26T05:55:58.313Z,14.77
2023-03-26T05:58:26.475Z,15.03
2023-03-26T06:01:10.659Z,15.03
2023-03-26T06:03:40.554Z,14.90
2023-03-26T06:06:15.657Z,14.76
2023-03-26T06:09:01.535Z,14.43
2023-03-26T06:11:31.212Z,14.39
2023-03-26T06:13:58.217Z,14.54
2023-03-26T06:16:27.190Z,14.85
2023-03-26T06:18:56.586Z,15.31
2023-03-26T06:21:27.695Z,15.55
2023-03-26T06:23:55.419Z,15.55
2023-03-26T06:26:22.324Z,15.77
2023-03-26T06:28:49.081Z,15.15
2023-03-26T06:31:17.428Z,14.70
2023-03-26T06:33:44.311Z,14.68
2023-03-26T06:36:11.234Z,14.79
2023-03-26T06:38:38.193Z,14.63
2023-03-26T06:41:06.300Z,14.52
2023-03-26T06:43:34.005Z,14.38
2023-03-26T06:46:01.793Z,15.16
2023-03-26T06:48:28.760Z,16.06
2023-03-26T06:50:55.910Z,16.61
2023-03-26T06:53:22.721Z,16.40
2023-03-26T06:55:49.646Z,16.58
2023-03-26T06:58:16.988Z,17.25
2023-03-26T07:00:43.996Z,17.26
2023-03-26T07:03:11.641Z,17.29
2023-03-26T07:05:41.150Z,17.41
2023-03-26T07:08:08.081Z,17.80
2023-03-26T07:10:34.764Z,17.70
2023-03-26T07:13:01.608Z,17.74
2023-03-26T07:15:29.054Z,18.18
2023-03-26T07:17:56.414Z,17.40
2023-03-26T07:20:24.142Z,18.10
2023-03-26T07:22:51.540Z,18.25
2023-03-26T07:25:19.249Z,17.88
2023-03-26T07:28:08.436Z,17.53
2023-03-26T07:30:50.356Z,17.88
2023-03-26T07:33:29.156Z,18.51
2023-03-26T07:36:19.754Z,18.60
2023-03-26T07:39:12.598Z,18.50
2023-03-26T07:41:49.503Z,18.58
2023-03-26T07:44:48.105Z,18.97
2023-03-26T07:47:26.218Z,19.02
2023-03-26T07:49:55.376Z,19.56
2023-03-26T07:52:22.421Z,19.83
2023-03-26T07:54:49.503Z,19.77
2023-03-26T07:57:35.157Z,19.75
2023-03-26T08:00:26.762Z,19.59
2023-03-26T08:03:22.700Z,18.59
2023-03-26T08:06:00.863Z,18.75
2023-03-26T08:08:42.263Z,18.92
2023-03-26T08:11:33.042Z,19.02
2023-03-26T08:14:32.722Z,19.24
2023-03-26T08:17:09.731Z,19.16
2023-03-26T08:20:02.395Z,19.35
2023-03-26T08:22:36.795Z,19.84
2023-03-26T08:25:23.026Z,19.64
2023-03-26T08:27:55.918Z,19.74
2023-03-26T08:30:25.482Z,19.54
2023-03-26T08:32:58.721Z,19.56
2023-03-26T08:35:27.252Z,19.86
2023-03-26T08:37:54.285Z,19.29
2023-03-26T08:40:55.005Z,19.75
2023-03-26T08:43:56.442Z,19.74
2023-03-26T08:46:45.630Z,19.62
2023-03-26T08:49:36.944Z,19.92
2023-03-26T08:52:41.088Z,20.00
2023-03-26T08:55:44.824Z,19.66
2023-03-26T08:58:35.814Z,20.02
2023-03-26T09:01:39.202Z,20.27
2023-03-26T09:04:46.923Z,20.66
2023-03-26T09:07:28.618Z,19.69
2023-03-26T09:10:02.209Z,19.04
2023-03-26T09:12:53.672Z,19.22
2023-03-26T09:15:54.906Z,20.23
2023-03-26T09:18:43.440Z,19.78
2023-03-26T09:21:22.455Z,20.57
2023-03-26T09:24:14.227Z,20.69
2023-03-26T09:26:47.054Z,20.91
2023-03-26T09:29:25.724Z,20.93
2023-03-26T09:32:14.224Z,20.63
2023-03-26T09:35:14.677Z,20.87
2023-03-26T09:37:56.805Z,21.29
2023-03-26T09:43:54.435Z,21.26
2023-03-26T09:46:26.782Z,21.72
2023-03-26T09:49:10.301Z,21.86
2023-03-26T09:52:14.339Z,21.32
2023-03-26T09:54:53.062Z,21.13
2023-03-26T09:57:38.025Z,21.90
2023-03-26T10:00:32.358Z,21.68
2023-03-26T10:03:15.794Z,21.15
2023-03-26T10:06:01.221Z,21.32
2023-03-26T10:08:47.607Z,21.40
2023-03-26T10:11:20.003Z,22.10
2023-03-26T10:14:10.926Z,21.81
2023-03-26T10:17:03.346Z,22.10
2023-03-26T10:19:39.349Z,21.56
2023-03-26T10:22:25.408Z,21.61
2023-03-26T10:25:10.469Z,20.73
2023-03-26T10:27:54.317Z,21.31
2023-03-26T10:30:23.586Z,21.61
2023-03-26T10:33:09.497Z,21.62
2023-03-26T10:36:05.413Z,22.15
2023-03-26T10:38:34.824Z,21.28
2023-03-26T10:41:10.218Z,21.71
2023-03-26T10:44:08.009Z,21.44
2023-03-26T10:46:38.366Z,21.98
2023-03-26T10:49:56.127Z,22.31
2023-03-26T10:52:29.590Z,22.73
2023-03-26T10:55:27.191Z,23.53
2023-03-26T10:58:03.174Z,22.48
2023-03-26T11:00:31.220Z,22.17
2023-03-26T11:03:28.351Z,22.69
2023-03-26T11:06:34.102Z,22.39
2023-03-26T11:09:03.873Z,22.32
2023-03-26T11:11:45.236Z,23.40
2023-03-26T11:14:34.807Z,21.88
2023-03-26T11:17:41.432Z,21.86
2023-03-26T11:20:18.818Z,21.77
2023-03-26T11:23:00.597Z,21.90
2023-03-26T11:26:01.490Z,22.20
2023-03-26T11:29:04.175Z,22.26
2023-03-26T11:32:03.109Z,22.62
2023-03-26T11:34:39.325Z,21.78
2023-03-26T11:37:15.453Z,21.37
2023-03-26T11:39:50.120Z,21.75
2023-03-26T11:42:19.854Z,22.36
2023-03-26T11:44:51.547Z,22.75
2023-03-26T11:47:23.567Z,21.85
2023-03-26T11:49:55.331Z,22.28
2023-03-26T11:52:22.462Z,22.59
2023-03-26T11:54:50.687Z,23.20
2023-03-26T11:57:22.602Z,22.51
2023-03-26T11:59:58.072Z,22.35
2023-03-26T12:02:32.749Z,21.75
2023-03-26T12:05:14.477Z,21.72
2023-03-26T12:08:01.290Z,22.36
2023-03-26T12:10:38.133Z,22.29
2023-03-26T12:13:38.967Z,22.49
2023-03-26T12:16:17.552Z,23.41
2023-03-26T12:18:46.295Z,22.23
2023-03-26T12:21:19.498Z,22.48
2023-03-26T12:24:05.777Z,23.36
2023-03-26T12:26:47.017Z,23.33
2023-03-26T12:29:16.849Z,22.13
2023-03-26T12:32:02.964Z,23.54
2023-03-26T12:34:36.825Z,22.71
2023-03-26T12:37:05.872Z,23.18
2023-03-26T12:40:07.770Z,22.19
2023-03-26T12:44:50.582Z,21.91
2023-03-26T12:45:28.499Z,23.28
2023-03-26T12:48:03.930Z,23.22
2023-03-26T12:51:09.743Z,22.75
2023-03-26T12:53:39.654Z,22.69
2023-03-26T12:56:36.472Z,22.55
2023-03-26T12:59:14.269Z,22.73
2023-03-26T13:01:50.575Z,22.96
2023-03-26T13:04:35.450Z,22.96
2023-03-26T13:07:09.717Z,23.16
2023-03-26T13:09:45.692Z,23.09
2023-03-26T13:12:12.730Z,23.53
2023-03-26T13:15:08.015Z,23.27
2023-03-26T13:17:54.896Z,23.60
2023-03-26T13:20:44.027Z,23.88
2023-03-26T13:23:42.163Z,24.61
2023-03-26T13:26:27.967Z,24.96
2023-03-26T13:29:09.894Z,23.76
2023-03-26T13:32:06.533Z,23.86
2023-03-26T13:34:36.451Z,24.19
2023-03-26T13:37:26.009Z,24.36
2023-03-26T13:39:55.642Z,25.59
2023-03-26T13:42:38.045Z,25.03
2023-03-26T13:45:07.650Z,24.53
2023-03-26T13:47:39.452Z,24.66
2023-03-26T13:50:24.750Z,25.48
2023-03-26T13:52:57.488Z,25.63
2023-03-26T13:55:44.466Z,25.84
2023-03-26T13:58:17.599Z,25.53
2023-03-26T14:01:02.710Z,23.71
2023-03-26T14:03:35.866Z,24.70
2023-03-26T14:06:12.581Z,25.31
2023-03-26T14:08:44.858Z,25.44
2023-03-26T14:11:19.633Z,23.02
2023-03-26T14:14:10.179Z,22.78
2023-03-26T14:16:44.521Z,22.33
2023-03-26T14:19:33.754Z,21.66
2023-03-26T14:22:21.879Z,21.16
2023-03-26T14:25:36.311Z,20.85
2023-03-26T14:28:33.742Z,21.06
2023-03-26T14:31:06.176Z,20.82
2023-03-26T14:33:42.112Z,20.72
2023-03-26T14:36:39.293Z,20.47
2023-03-26T14:39:23.906Z,20.42
2023-03-26T14:41:53.390Z,20.32
2023-03-26T14:44:47.971Z,20.12
2023-03-26T14:47:26.331Z,20.21
2023-03-26T14:49:59.038Z,20.21
2023-03-26T14:52:27.476Z,20.09
2023-03-26T14:54:58.690Z,19.92
2023-03-26T14:57:39.570Z,20.20
2023-03-26T15:00:43.776Z,20.53
2023-03-26T15:03:29.537Z,20.41
2023-03-26T15:06:21.331Z,19.99
2023-03-26T15:09:00.308Z,19.92
2023-03-26T15:12:17.951Z,19.69
2023-03-26T15:15:02.190Z,19.70
2023-03-26T15:17:50.433Z,19.55
2023-03-26T15:20:41.227Z,19.42
2023-03-26T15:23:32.306Z,19.36
2023-03-26T15:26:37.166Z,19.34
2023-03-26T15:29:16.405Z,19.25
2023-03-26T15:31:47.683Z,19.26
2023-03-26T15:34:45.084Z,19.03
2023-03-26T15:37:48.965Z,19.16
2023-03-26T15:40:40.493Z,19.06
2023-03-26T15:43:13.626Z,18.93
2023-03-26T15:46:35.966Z,18.66
2023-03-26T15:49:33.586Z,18.62
2023-03-26T15:52:06.446Z,18.51
2023-03-26T15:54:46.880Z,18.42
2023-03-26T15:57:26.761Z,18.43
2023-03-26T16:00:19.956Z,18.19
2023-03-26T16:03:09.525Z,18.22
2023-03-26T16:05:44.747Z,18.13
2023-03-26T16:08:30.751Z,18.14
2023-03-26T16:11:00.094Z,17.99
2023-03-26T16:13:26.700Z,17.96
2023-03-26T16:16:04.103Z,17.81
2023-03-26T16:18:31.051Z,17.74
2023-03-26T16:21:31.420Z,17.64
2023-03-26T16:24:02.243Z,17.47
2023-03-26T16:26:31.815Z,17.46
2023-03-26T16:29:14.395Z,17.46
2023-03-26T16:32:05.912Z,17.21
2023-03-26T16:34:59.511Z,17.11
2023-03-26T16:37:33.681Z,17.04
2023-03-26T16:40:28.088Z,16.98
2023-03-26T16:42:54.761Z,16.78
2023-03-26T16:45:33.385Z,16.63
2023-03-26T16:48:21.123Z,16.58
2023-03-26T16:51:03.854Z,16.62
2023-03-26T16:53:57.787Z,16.47
2023-03-26T16:56:43.644Z,16.68
2023-03-26T16:59:38.186Z,16.64
2023-03-26T17:02:20.009Z,16.67
2023-03-26T17:04:52.036Z,16.62
2023-03-26T17:07:35.717Z,16.58
2023-03-26T17:10:32.602Z,16.51
2023-03-26T17:13:36.343Z,16.44
2023-03-26T17:16:17.884Z,16.44
2023-03-26T17:19:09.420Z,16.46
2023-03-26T17:21:58.462Z,16.41
2023-03-26T17:24:49.271Z,16.29
2023-03-26T17:27:34.255Z,16.34
2023-03-26T17:30:32.453Z,16.31
2023-03-26T17:33:00.058Z,16.46
2023-03-26T17:35:46.921Z,16.23
2023-03-26T17:38:25.855Z,15.95
2023-03-26T17:40:55.315Z,15.43
2023-03-26T17:43:53.083Z,15.30
2023-03-26T17:46:41.370Z,15.16
2023-03-26T17:49:14.166Z,14.96
2023-03-26T17:52:01.664Z,14.92
2023-03-26T17:54:41.455Z,14.78
2023-03-26T17:57:41.937Z,14.78
2023-03-26T18:00:25.570Z,14.75
2023-03-26T18:02:57.686Z,14.81
2023-03-26T18:05:29.192Z,14.69
2023-03-26T18:08:11.136Z,14.52
2023-03-26T18:10:40.851Z,14.34
2023-03-26T18:13:38.639Z,14.45
2023-03-26T18:16:21.431Z,14.38
2023-03-26T18:18:54.437Z,14.33
2023-03-26T18:21:35.277Z,14.32
2023-03-26T18:24:03.307Z,14.40
2023-03-26T18:26:39.790Z,14.38
2023-03-26T18:29:21.839Z,14.42
2023-03-26T18:31:54.812Z,14.20
2023-03-26T18:34:22.427Z,14.25
2023-03-26T18:37:08.546Z,13.53
2023-03-26T18:39:35.362Z,13.64
2023-03-26T18:42:02.483Z,13.56
2023-03-26T18:44:29.286Z,13.62
2023-03-26T18:46:56.368Z,13.49
2023-03-26T18:49:26.250Z,13.46
2023-03-26T18:51:57.076Z,13.47
2023-03-26T18:54:27.842Z,13.20
2023-03-26T18:56:55.204Z,13.28
2023-03-26T18:59:35.282Z,13.34
2023-03-26T19:02:13.964Z,13.41
2023-03-26T19:04:46.793Z,13.37
2023-03-26T19:07:17.143Z,13.59
2023-03-26T19:09:44.513Z,13.70
2023-03-26T19:12:22.908Z,13.88
2023-03-26T19:15:10.373Z,13.94
2023-03-26T19:17:42.630Z,13.72
2023-03-26T19:20:38.149Z,13.81
2023-03-26T19:23:05.460Z,13.72
2023-03-26T19:25:39.870Z,13.42
2023-03-26T19:28:15.606Z,13.36
2023-03-26T19:30:43.243Z,13.10
2023-03-26T19:33:18.886Z,13.13
2023-03-26T19:35:52.147Z,13.21
2023-03-26T19:38:24.127Z,13.25
2023-03-26T19:40:58.998Z,13.35
2023-03-26T19:43:27.183Z,13.66
2023-03-26T19:46:00.863Z,13.95
2023-03-26T19:48:46.887Z,13.88
2023-03-26T19:51:24.288Z,13.87
2023-03-26T19:53:56.086Z,13.86
2023-03-26T19:56:23.152Z,14.12
2023-03-26T19:58:50.380Z,14.10
2023-03-26T20:01:17.999Z,14.01
2023-03-26T20:03:47.882Z,14.05
2023-03-26T20:06:18.230Z,13.47
2023-03-26T20:08:44.971Z,13.68
2023-03-26T20:11:19.080Z,13.73
2023-03-26T20:13:46.572Z,13.59
2023-03-26T20:16:19.159Z,13.54
2023-03-26T20:18:46.208Z,13.57
2023-03-26T20:21:13.058Z,13.02
2023-03-26T20:23:41.123Z,12.83
2023-03-26T20:26:13.146Z,12.54
2023-03-26T20:28:53.207Z,12.68
2023-03-26T20:31:26.344Z,12.70
2023-03-26T20:33:54.188Z,12.78
2023-03-26T20:36:33.215Z,12.70
2023-03-26T20:39:01.375Z,12.92
2023-03-26T20:41:29.249Z,13.11
2023-03-26T20:43:56.070Z,12.97
2023-03-26T20:46:31.316Z,12.84
2023-03-26T20:48:59.766Z,12.82
2023-03-26T20:51:29.075Z,12.73
2023-03-26T20:53:56.361Z,12.61
2023-03-26T20:56:23.561Z,12.53
2023-03-26T20:59:03.674Z,12.24
2023-03-26T21:01:35.035Z,12.24
2023-03-26T21:04:04.451Z,12.28
2023-03-26T21:06:31.274Z,12.34
2023-03-26T21:08:58.272Z,12.30
2023-03-26T21:11:43.830Z,11.74
2023-03-26T21:14:17.226Z,11.77
2023-03-26T21:16:44.292Z,12.02
2023-03-26T21:19:11.361Z,12.17
2023-03-26T21:21:46.271Z,11.88
2023-03-26T21:24:21.769Z,11.83
2023-03-26T21:27:17.482Z,11.46
2023-03-26T21:29:44.445Z,11.22
2023-03-26T21:32:12.315Z,11.25
2023-03-26T21:34:47.779Z,11.52
2023-03-26T21:37:22.858Z,11.49
2023-03-26T21:39:49.703Z,11.56
2023-03-26T21:42:16.581Z,11.38
2023-03-26T21:44:43.507Z,11.12
2023-03-26T21:47:11.780Z,11.23
2023-03-26T21:49:38.996Z,10.89
2023-03-26T21:52:06.225Z,10.92
2023-03-26T21:54:33.371Z,10.02
2023-03-26T21:56:59.976Z,9.97
2023-03-26T21:59:36.631Z,10.02
2023-03-26T22:02:26.313Z,9.97
2023-03-26T22:05:13.292Z,9.73
2023-03-26T22:07:54.876Z,9.39
2023-03-26T22:10:22.137Z,9.43
2023-03-26T22:12:49.406Z,9.21
2023-03-26T22:15:18.293Z,9.15
2023-03-26T22:17:46.126Z,9.30
2023-03-26T22:20:14.791Z,8.85
2023-03-26T22:22:48.723Z,8.85
2023-03-26T22:25:19.016Z,8.89
2023-03-26T22:27:47.173Z,8.94
2023-03-26T22:30:15.698Z,8.98
2023-03-26T22:32:43.505Z,8.90
2023-03-26T22:35:10.614Z,8.98
2023-03-26T22:37:37.876Z,8.81
2023-03-26T22:40:10.447Z,8.64
2023-03-26T22:42:37.259Z,8.73
2023-03-26T22:45:04.571Z,8.76
2023-03-26T22:47:33.749Z,8.66
2023-03-26T22:50:00.805Z,8.83
2023-03-26T22:52:28.213Z,9.05
2023-03-26T22:54:55.704Z,9.24
2023-03-26T22:57:23.214Z,9.30
2023-03-26T22:59:50.394Z,9.02
2023-03-26T23:02:17.666Z,8.73
2023-03-26T23:04:44.514Z,8.68
2023-03-26T23:07:11.235Z,8.82
2023-03-26T23:09:38.004Z,8.59
2023-03-26T23:12:05.051Z,8.32
2023-03-26T23:14:34.896Z,8.31
2023-03-26T23:17:01.610Z,8.30
2023-03-26T23:19:30.159Z,8.21
2023-03-26T23:21:57.548Z,8.05
2023-03-26T23:24:26.778Z,7.94
2023-03-26T23:26:53.518Z,7.97
2023-03-26T23:29:20.302Z,7.92
2023-03-26T23:31:47.680Z,7.84
2023-03-26T23:34:16.395Z,7.71
2023-03-26T23:36:44.837Z,7.65
2023-03-26T23:39:11.706Z,7.58
2023-03-26T23:41:38.655Z,7.70
2023-03-26T23:44:05.485Z,7.74
2023-03-26T23:46:34.887Z,7.69
2023-03-26T23:49:04.498Z,7.75
2023-03-26T23:51:32.007Z,7.49
2023-03-26T23:53:59.920Z,7.76
2023-03-26T23:56:30.052Z,7.72
2023-03-26T23:58:56.959Z,7.61
